createdAt,value
2018-07-07T00:01:29.344Z,20.89
2018-07-07T00:03:58.293Z,21.06
2018-07-07T00:06:27.243Z,21.13
2018-07-07T00:08:56.205Z,21.10
2018-07-07T00:11:25.209Z,21.09
2018-07-07T00:13:54.260Z,20.85
2018-07-07T00:16:23.219Z,20.89
2018-07-07T00:18:52.126Z,20.96
2018-07-07T00:21:21.082Z,20.79
2018-07-07T00:23:50.089Z,20.89
2018-07-07T00:26:19.052Z,20.88
2018-07-07T00:28:48.068Z,20.88
2018-07-07T00:31:16.994Z,20.79
2018-07-07T00:33:46.011Z,20.72
2018-07-07T00:36:15.021Z,20.83
2018-07-07T00:38:44.028Z,20.92
2018-07-07T00:41:12.933Z,20.72
2018-07-07T00:43:41.841Z,20.70
2018-07-07T00:46:10.745Z,20.76
2018-07-07T00:48:39.705Z,20.69
2018-07-07T00:51:08.667Z,20.66
2018-07-07T00:53:37.587Z,20.64
2018-07-07T00:56:06.515Z,20.52
2018-07-07T00:58:35.472Z,20.54
2018-07-07T01:01:04.390Z,20.59
2018-07-07T01:03:33.316Z,20.50
2018-07-07T01:06:02.373Z,20.45
2018-07-07T01:08:31.302Z,20.49
2018-07-07T01:11:00.338Z,20.44
2018-07-07T01:13:29.239Z,20.43
2018-07-07T01:15:58.173Z,20.26
2018-07-07T01:18:27.125Z,20.25
2018-07-07T01:20:56.057Z,20.32
2018-07-07T01:23:24.989Z,20.43
2018-07-07T01:25:53.936Z,20.32
2018-07-07T01:28:22.848Z,20.13
2018-07-07T01:30:51.812Z,20.19
2018-07-07T01:33:20.717Z,20.17
2018-07-07T01:35:49.691Z,20.20
2018-07-07T01:38:18.634Z,20.16
2018-07-07T01:40:47.741Z,20.26
2018-07-07T01:43:16.637Z,20.32
2018-07-07T01:45:45.569Z,20.29
2018-07-07T01:48:14.517Z,20.26
2018-07-07T01:50:43.437Z,20.35
2018-07-07T01:53:12.364Z,20.32
2018-07-07T01:55:46.916Z,20.26
2018-07-07T01:58:15.868Z,20.25
2018-07-07T02:00:44.782Z,20.23
2018-07-07T02:03:13.693Z,20.08
2018-07-07T02:05:48.276Z,19.93
2018-07-07T02:08:17.249Z,19.95
2018-07-07T02:10:51.722Z,19.95
2018-07-07T02:13:20.641Z,19.91
2018-07-07T02:15:49.530Z,19.88
2018-07-07T02:18:18.405Z,19.88
2018-07-07T02:20:47.368Z,20.01
2018-07-07T02:23:16.279Z,20.02
2018-07-07T02:25:45.187Z,19.99
2018-07-07T02:28:14.115Z,19.98
2018-07-07T02:30:48.714Z,19.89
2018-07-07T02:33:17.701Z,19.84
2018-07-07T02:35:46.658Z,19.56
2018-07-07T02:38:21.135Z,19.72
2018-07-07T02:40:55.823Z,19.67
2018-07-07T02:43:30.207Z,19.83
2018-07-07T02:45:59.105Z,19.89
2018-07-07T02:48:28.042Z,19.89
2018-07-07T02:50:56.956Z,19.73
2018-07-07T02:53:25.917Z,19.76
2018-07-07T02:55:54.838Z,19.88
2018-07-07T02:58:23.751Z,19.92
2018-07-07T03:00:52.662Z,19.86
2018-07-07T03:03:21.648Z,19.70
2018-07-07T03:05:50.481Z,19.50
2018-07-07T03:08:19.416Z,19.51
2018-07-07T03:10:48.368Z,19.39
2018-07-07T03:13:17.267Z,19.31
2018-07-07T03:15:46.244Z,19.31
2018-07-07T03:18:15.198Z,19.10
2018-07-07T03:20:44.112Z,19.15
2018-07-07T03:23:13.084Z,19.11
2018-07-07T03:25:41.988Z,19.00
2018-07-07T03:28:10.978Z,18.82
2018-07-07T03:30:39.931Z,18.76
2018-07-07T03:33:08.868Z,18.78
2018-07-07T03:35:37.796Z,18.84
2018-07-07T03:38:06.702Z,19.00
2018-07-07T03:40:35.598Z,18.99
2018-07-07T03:43:04.562Z,19.13
2018-07-07T03:45:39.059Z,19.09
2018-07-07T03:48:08.004Z,19.05
2018-07-07T03:50:36.933Z,19.03
2018-07-07T03:53:05.920Z,19.00
2018-07-07T03:55:34.859Z,19.02
2018-07-07T03:58:03.814Z,19.16
2018-07-07T04:00:32.830Z,19.22
2018-07-07T04:03:01.747Z,19.26
2018-07-07T04:05:30.684Z,19.28
2018-07-07T04:07:59.652Z,19.38
2018-07-07T04:10:28.778Z,19.33
2018-07-07T04:12:57.664Z,19.38
2018-07-07T04:15:26.640Z,19.38
2018-07-07T04:17:55.569Z,19.25
2018-07-07T04:20:24.570Z,19.31
2018-07-07T04:22:53.516Z,19.25
2018-07-07T04:25:22.448Z,19.24
2018-07-07T04:27:51.428Z,19.17
2018-07-07T04:30:20.292Z,19.07
2018-07-07T04:32:49.260Z,19.03
2018-07-07T04:35:18.228Z,19.00
2018-07-07T04:37:47.152Z,19.06
2018-07-07T04:40:16.172Z,18.97
2018-07-07T04:42:45.120Z,18.96
2018-07-07T04:45:14.096Z,18.77
2018-07-07T04:47:43.016Z,18.95
2018-07-07T04:50:11.915Z,18.85
2018-07-07T04:52:40.808Z,18.93
2018-07-07T04:55:09.768Z,19.04
2018-07-07T04:57:38.900Z,18.95
2018-07-07T05:00:07.856Z,19.13
2018-07-07T05:02:36.868Z,19.17
2018-07-07T05:05:05.840Z,19.05
2018-07-07T05:07:34.781Z,19.03
2018-07-07T05:10:03.748Z,19.06
2018-07-07T05:12:32.720Z,19.18
2018-07-07T05:15:01.652Z,19.07
2018-07-07T05:17:30.636Z,19.13
2018-07-07T05:19:59.528Z,19.16
2018-07-07T05:22:28.462Z,19.18
2018-07-07T05:24:57.408Z,19.17
2018-07-07T05:27:26.344Z,19.07
2018-07-07T05:29:55.300Z,19.07
2018-07-07T05:32:24.242Z,19.07
2018-07-07T05:34:53.175Z,19.18
2018-07-07T05:37:22.336Z,19.22
2018-07-07T05:39:51.218Z,19.17
2018-07-07T05:42:20.183Z,19.20
2018-07-07T05:44:49.142Z,19.30
2018-07-07T05:47:18.124Z,19.23
2018-07-07T05:49:47.124Z,19.21
2018-07-07T05:52:16.016Z,19.27
2018-07-07T05:54:44.984Z,19.37
2018-07-07T05:57:13.902Z,19.36
2018-07-07T05:59:42.879Z,19.40
2018-07-07T06:02:11.852Z,19.34
2018-07-07T06:04:40.828Z,19.41
2018-07-07T06:07:09.734Z,19.37
2018-07-07T06:09:38.748Z,19.53
2018-07-07T06:12:07.692Z,19.50
2018-07-07T06:14:36.637Z,19.60
2018-07-07T06:17:11.105Z,19.63
2018-07-07T06:19:45.716Z,19.54
2018-07-07T06:22:14.643Z,19.55
2018-07-07T06:24:43.552Z,19.74
2018-07-07T06:27:12.587Z,19.81
2018-07-07T06:29:41.521Z,19.77
2018-07-07T06:32:10.437Z,19.79
2018-07-07T06:34:39.369Z,19.76
2018-07-07T06:37:08.325Z,19.86
2018-07-07T06:39:37.261Z,19.83
2018-07-07T06:42:06.166Z,19.94
2018-07-07T06:44:35.209Z,19.92
2018-07-07T06:47:04.281Z,20.02
2018-07-07T06:49:33.189Z,20.03
2018-07-07T06:52:02.065Z,20.13
2018-07-07T06:54:31.097Z,20.19
2018-07-07T06:57:00.037Z,20.30
2018-07-07T06:59:28.979Z,20.54
2018-07-07T07:01:57.826Z,20.64
2018-07-07T07:04:26.741Z,20.84
2018-07-07T07:06:55.691Z,20.92
2018-07-07T07:09:24.709Z,21.22
2018-07-07T07:11:53.689Z,21.45
2018-07-07T07:14:22.593Z,21.78
2018-07-07T07:16:51.488Z,21.94
2018-07-07T07:19:20.425Z,22.16
2018-07-07T07:21:49.377Z,22.06
2018-07-07T07:24:18.345Z,22.31
2018-07-07T07:26:47.293Z,22.52
2018-07-07T07:29:21.797Z,22.65
2018-07-07T07:31:50.824Z,22.75
2018-07-07T07:34:19.780Z,22.80
2018-07-07T07:36:49.115Z,23.03
2018-07-07T07:39:17.996Z,23.25
2018-07-07T07:54:46.950Z,23.97
2018-07-07T07:57:15.957Z,24.31
2018-07-07T07:59:45.136Z,24.19
2018-07-07T08:02:14.056Z,24.42
2018-07-07T08:04:43.007Z,24.59
2018-07-07T08:07:11.965Z,24.84
2018-07-07T08:09:40.931Z,24.78
2018-07-07T08:12:09.904Z,24.74
2018-07-07T08:14:38.845Z,23.74
2018-07-07T08:17:07.756Z,23.83
2018-07-07T08:19:36.732Z,23.95
2018-07-07T08:22:06.130Z,23.75
2018-07-07T08:24:35.017Z,24.08
2018-07-07T08:27:03.987Z,23.94
2018-07-07T08:29:32.882Z,24.06
2018-07-07T08:32:01.817Z,24.02
2018-07-07T08:34:30.895Z,23.93
2018-07-07T08:36:59.819Z,23.90
2018-07-07T08:39:28.818Z,23.85
2018-07-07T08:41:57.838Z,23.62
2018-07-07T08:44:26.848Z,23.56
2018-07-07T08:46:55.854Z,23.60
2018-07-07T08:49:25.201Z,22.77
2018-07-07T08:51:54.347Z,23.08
2018-07-07T08:54:23.260Z,23.24
2018-07-07T08:56:52.250Z,23.40
2018-07-07T08:59:21.154Z,23.40
2018-07-07T09:01:50.084Z,23.38
2018-07-07T09:04:24.646Z,23.32
2018-07-07T09:06:59.292Z,23.41
2018-07-07T09:09:28.254Z,23.45
2018-07-07T09:11:57.295Z,23.46
2018-07-07T09:14:26.206Z,23.64
2018-07-07T09:16:55.136Z,23.33
2018-07-07T09:19:24.033Z,23.27
2018-07-07T09:21:52.989Z,23.46
2018-07-07T09:24:21.980Z,23.48
2018-07-07T09:26:51.249Z,23.60
2018-07-07T09:29:20.248Z,23.76
2018-07-07T09:31:49.233Z,23.82
2018-07-07T09:34:18.214Z,23.74
2018-07-07T09:36:47.131Z,23.71
2018-07-07T09:39:16.100Z,23.75
2018-07-07T09:41:45.073Z,23.74
2018-07-07T09:44:14.064Z,23.21
2018-07-07T09:46:42.986Z,23.18
2018-07-07T09:49:12.028Z,23.24
2018-07-07T09:51:40.998Z,23.20
2018-07-07T09:54:09.979Z,23.17
2018-07-07T09:56:38.985Z,23.39
2018-07-07T09:59:08.029Z,23.49
2018-07-07T10:01:37.017Z,23.20
2018-07-07T10:04:05.938Z,22.91
2018-07-07T10:06:34.890Z,23.01
2018-07-07T10:09:04.620Z,23.26
2018-07-07T10:11:33.536Z,23.51
2018-07-07T10:14:02.510Z,23.44
2018-07-07T10:16:31.453Z,23.34
2018-07-07T10:19:00.398Z,23.65
2018-07-07T10:21:29.418Z,23.90
2018-07-07T10:23:58.375Z,23.83
2018-07-07T10:26:27.320Z,23.68
2018-07-07T10:28:56.253Z,23.68
2018-07-07T10:31:25.197Z,23.70
2018-07-07T10:33:54.169Z,23.72
2018-07-07T10:36:23.989Z,23.83
2018-07-07T10:38:53.024Z,23.96
2018-07-07T10:41:21.950Z,23.89
2018-07-07T10:43:50.960Z,23.75
2018-07-07T10:46:19.929Z,23.51
2018-07-07T10:48:48.924Z,23.53
2018-07-07T10:51:17.901Z,23.75
2018-07-07T10:53:46.942Z,24.00
2018-07-07T10:56:15.901Z,24.16
2018-07-07T10:58:44.846Z,24.26
2018-07-07T11:01:13.926Z,24.36
2018-07-07T11:03:43.116Z,24.10
2018-07-07T11:06:12.113Z,24.03
2018-07-07T11:08:41.056Z,23.98
2018-07-07T11:11:10.055Z,24.02
2018-07-07T11:13:38.999Z,23.86
2018-07-07T11:16:07.993Z,23.99
2018-07-07T11:18:36.930Z,24.00
2018-07-07T11:21:05.968Z,23.76
2018-07-07T11:23:34.940Z,23.91
2018-07-07T11:26:03.936Z,24.15
2018-07-07T11:28:32.935Z,24.37
2018-07-07T11:31:01.959Z,24.55
2018-07-07T11:33:30.932Z,24.69
2018-07-07T11:35:59.858Z,24.62
2018-07-07T11:38:28.936Z,24.38
2018-07-07T11:40:57.886Z,24.07
2018-07-07T11:43:32.587Z,24.25
2018-07-07T11:46:01.487Z,24.35
2018-07-07T11:48:30.470Z,24.27
2018-07-07T11:50:59.473Z,24.35
2018-07-07T11:53:28.405Z,24.45
2018-07-07T11:55:57.390Z,24.43
2018-07-07T11:58:26.324Z,24.45
2018-07-07T12:00:55.288Z,24.52
2018-07-07T12:03:24.281Z,24.69
2018-07-07T12:05:53.334Z,24.75
2018-07-07T12:08:22.325Z,24.77
2018-07-07T12:10:51.285Z,24.80
2018-07-07T12:13:20.229Z,24.73
2018-07-07T12:15:49.227Z,24.73
2018-07-07T12:18:18.151Z,24.36
2018-07-07T12:20:47.131Z,24.32
2018-07-07T12:23:16.191Z,24.44
2018-07-07T12:25:45.177Z,24.58
2018-07-07T12:28:14.238Z,24.45
2018-07-07T12:30:43.192Z,24.49
2018-07-07T12:33:12.132Z,24.55
2018-07-07T12:35:41.105Z,24.62
2018-07-07T12:38:10.124Z,24.70
2018-07-07T12:40:39.035Z,24.72
2018-07-07T12:43:08.033Z,24.81
2018-07-07T12:45:36.997Z,24.71
2018-07-07T12:48:06.016Z,24.66
2018-07-07T12:50:34.971Z,24.67
2018-07-07T12:53:03.943Z,24.54
2018-07-07T12:55:32.916Z,24.66
2018-07-07T12:58:01.934Z,24.60
2018-07-07T13:00:30.917Z,24.71
2018-07-07T13:02:59.897Z,24.67
2018-07-07T13:05:34.350Z,24.47
2018-07-07T13:08:07.130Z,24.29
2018-07-07T13:10:36.111Z,24.43
2018-07-07T13:13:05.120Z,24.66
2018-07-07T13:15:34.049Z,24.82
2018-07-07T13:18:08.629Z,24.91
2018-07-07T13:20:37.602Z,25.03
2018-07-07T13:23:12.125Z,25.05
2018-07-07T13:25:41.141Z,25.00
2018-07-07T13:28:10.282Z,25.03
2018-07-07T13:30:45.420Z,24.94
2018-07-07T13:33:14.504Z,24.94
2018-07-07T13:35:43.289Z,24.88
2018-07-07T13:38:12.289Z,24.73
2018-07-07T13:40:41.227Z,24.77
2018-07-07T13:43:10.237Z,24.75
2018-07-07T13:45:39.176Z,24.78
2018-07-07T13:48:08.408Z,24.80
2018-07-07T13:50:37.599Z,24.82
2018-07-07T13:53:06.503Z,24.71
2018-07-07T13:55:35.450Z,24.80
2018-07-07T13:58:04.480Z,24.89
2018-07-07T14:00:33.442Z,25.02
2018-07-07T14:03:02.343Z,24.94
2018-07-07T14:05:31.358Z,24.78
2018-07-07T14:08:00.293Z,24.82
2018-07-07T14:10:29.259Z,24.94
2018-07-07T14:12:58.233Z,25.05
2018-07-07T14:15:27.169Z,25.08
2018-07-07T14:17:56.170Z,25.01
2018-07-07T14:20:25.706Z,25.05
2018-07-07T14:22:54.724Z,25.06
2018-07-07T14:25:23.691Z,25.05
2018-07-07T14:27:58.285Z,24.74
2018-07-07T14:30:27.242Z,24.56
2018-07-07T14:32:56.207Z,24.71
2018-07-07T14:35:25.157Z,24.92
2018-07-07T14:37:54.118Z,25.01
2018-07-07T14:40:23.128Z,24.93
2018-07-07T14:42:53.197Z,24.90
2018-07-07T14:45:24.087Z,24.94
2018-07-07T14:47:54.376Z,24.91
2018-07-07T14:50:23.574Z,25.04
2018-07-07T14:52:52.572Z,25.01
2018-07-07T14:55:23.094Z,25.18
2018-07-07T14:57:52.079Z,25.23
2018-07-07T15:00:23.216Z,25.18
2018-07-07T15:02:53.356Z,25.20
2018-07-07T15:05:22.275Z,25.06
2018-07-07T15:07:51.344Z,24.95
2018-07-07T15:10:20.281Z,24.94
2018-07-07T15:12:49.619Z,25.05
2018-07-07T15:15:18.556Z,25.18
2018-07-07T15:17:47.821Z,25.31
2018-07-07T15:20:16.746Z,25.37
2018-07-07T15:22:45.835Z,25.42
2018-07-07T15:25:14.634Z,25.28
2018-07-07T15:27:43.630Z,25.25
2018-07-07T15:30:12.594Z,25.25
2018-07-07T15:32:41.553Z,25.26
2018-07-07T15:35:10.475Z,25.28
2018-07-07T15:37:39.388Z,25.03
2018-07-07T15:40:08.309Z,24.90
2018-07-07T15:42:37.299Z,24.72
2018-07-07T15:45:06.234Z,24.86
2018-07-07T15:47:35.163Z,25.05
2018-07-07T15:50:04.616Z,25.03
2018-07-07T15:52:39.171Z,25.00
2018-07-07T15:55:08.232Z,25.12
2018-07-07T15:57:37.238Z,24.89
2018-07-07T16:00:07.933Z,25.07
2018-07-07T16:02:36.913Z,25.07
2018-07-07T16:05:06.072Z,25.10
2018-07-07T16:07:35.137Z,25.19
2018-07-07T16:10:04.341Z,25.23
2018-07-07T16:12:33.378Z,25.24
2018-07-07T16:15:02.280Z,25.34
2018-07-07T16:17:31.411Z,25.21
2018-07-07T16:20:00.357Z,25.00
2018-07-07T16:22:29.343Z,24.87
2018-07-07T16:31:49.068Z,24.96
2018-07-07T16:34:17.965Z,24.96
2018-07-07T16:36:46.921Z,25.06
2018-07-07T16:39:15.831Z,25.11
2018-07-07T16:41:44.828Z,25.14
2018-07-07T16:44:13.840Z,25.19
2018-07-07T16:46:42.807Z,25.20
2018-07-07T16:49:11.824Z,24.85
2018-07-07T16:51:41.764Z,24.73
2018-07-07T16:54:17.672Z,24.67
2018-07-07T16:56:46.638Z,24.85
2018-07-07T16:59:16.126Z,24.92
2018-07-07T17:01:45.161Z,24.79
2018-07-07T17:04:15.117Z,24.79
2018-07-07T17:06:44.074Z,24.86
2018-07-07T17:09:13.240Z,24.95
2018-07-07T17:11:42.282Z,24.97
2018-07-07T17:14:11.585Z,24.85
2018-07-07T17:16:41.430Z,24.59
2018-07-07T17:19:11.597Z,24.54
2018-07-07T17:21:40.591Z,24.40
2018-07-07T17:24:09.588Z,24.42
2018-07-07T17:26:38.579Z,24.49
2018-07-07T17:29:07.548Z,24.53
2018-07-07T17:31:36.525Z,24.49
2018-07-07T17:34:05.490Z,24.37
2018-07-07T17:36:34.432Z,24.46
2018-07-07T17:39:04.729Z,24.24
2018-07-07T17:41:34.204Z,24.34
2018-07-07T17:44:03.186Z,24.31
2018-07-07T17:46:32.159Z,24.46
2018-07-07T17:49:01.208Z,24.39
2018-07-07T17:51:35.652Z,24.49
2018-07-07T17:54:04.644Z,24.41
2018-07-07T17:56:33.726Z,24.43
2018-07-07T17:59:03.028Z,24.44
2018-07-07T18:01:32.382Z,24.34
2018-07-07T18:04:01.359Z,24.40
2018-07-07T18:06:30.292Z,24.43
2018-07-07T18:08:59.220Z,24.43
2018-07-07T18:11:28.237Z,24.31
2018-07-07T18:13:57.131Z,24.36
2018-07-07T18:16:26.029Z,24.30
2018-07-07T18:18:54.996Z,24.31
2018-07-07T18:21:23.989Z,24.36
2018-07-07T18:23:52.999Z,24.40
2018-07-07T18:26:22.060Z,24.46
2018-07-07T18:28:50.984Z,24.42
2018-07-07T18:31:19.928Z,24.21
2018-07-07T18:33:48.903Z,24.23
2018-07-07T18:36:17.899Z,24.18
2018-07-07T18:38:46.903Z,24.15
2018-07-07T18:41:15.913Z,24.14
2018-07-07T18:43:44.887Z,24.18
2018-07-07T18:46:13.825Z,24.17
2018-07-07T18:48:42.722Z,24.23
2018-07-07T18:51:11.738Z,24.20
2018-07-07T18:53:40.674Z,24.22
2018-07-07T18:56:09.572Z,24.09
2018-07-07T18:58:38.572Z,23.89
2018-07-07T19:01:07.517Z,23.93
2018-07-07T19:03:36.440Z,23.92
2018-07-07T19:06:05.476Z,23.99
2018-07-07T19:08:34.460Z,23.98
2018-07-07T19:11:03.430Z,23.96
2018-07-07T19:13:32.348Z,23.91
2018-07-07T19:16:01.271Z,23.82
2018-07-07T19:18:30.332Z,23.81
2018-07-07T19:21:04.358Z,23.78
2018-07-07T19:23:38.460Z,23.72
2018-07-07T19:26:12.733Z,23.70
2018-07-07T19:28:41.607Z,23.66
2018-07-07T19:31:10.515Z,23.57
2018-07-07T19:33:44.776Z,23.40
2018-07-07T19:36:19.025Z,23.31
2018-07-07T19:38:47.999Z,23.31
2018-07-07T19:41:17.181Z,23.18
2018-07-07T19:43:46.167Z,23.23
2018-07-07T19:46:15.164Z,23.07
2018-07-07T19:48:44.080Z,22.88
2018-07-07T19:51:13.173Z,22.94
2018-07-07T19:53:42.198Z,22.89
2018-07-07T19:56:11.137Z,22.89
2018-07-07T19:58:40.156Z,22.86
2018-07-07T20:01:09.098Z,22.73
2018-07-07T20:03:38.089Z,22.58
2018-07-07T20:06:07.024Z,22.50
2018-07-07T20:08:36.000Z,22.39
2018-07-07T20:11:04.944Z,22.30
2018-07-07T20:13:33.990Z,22.12
2018-07-07T20:16:18.496Z,22.27
2018-07-07T20:19:25.630Z,22.19
2018-07-07T20:21:56.883Z,22.01
2018-07-07T20:24:31.101Z,21.79
2018-07-07T20:27:05.228Z,21.68
2018-07-07T20:29:34.276Z,21.48
2018-07-07T20:32:03.252Z,21.48
2018-07-07T20:34:32.364Z,21.42
2018-07-07T20:37:01.284Z,21.34
2018-07-07T20:39:30.252Z,21.54
2018-07-07T20:41:59.210Z,21.54
2018-07-07T20:44:28.167Z,21.42
2018-07-07T20:46:57.135Z,21.34
2018-07-07T20:49:26.042Z,21.36
2018-07-07T20:52:00.384Z,21.43
2018-07-07T20:54:34.798Z,21.27
2018-07-07T20:57:03.787Z,21.16
2018-07-07T20:59:32.660Z,21.31
2018-07-07T21:02:01.696Z,21.49
2018-07-07T21:04:30.572Z,21.41
2018-07-07T21:06:59.524Z,21.45
2018-07-07T21:09:28.458Z,21.36
2018-07-07T21:11:57.427Z,21.31
2018-07-07T21:14:26.455Z,21.10
2018-07-07T21:16:55.400Z,21.23
2018-07-07T21:19:24.358Z,21.30
2018-07-07T21:21:53.338Z,21.24
2018-07-07T21:24:22.225Z,21.18
2018-07-07T21:26:51.184Z,21.22
2018-07-07T21:29:20.176Z,21.23
2018-07-07T21:31:49.145Z,21.20
2018-07-07T21:34:18.070Z,21.16
2018-07-07T21:36:47.054Z,21.04
2018-07-07T21:39:16.025Z,21.04
2018-07-07T21:41:44.934Z,20.97
2018-07-07T21:44:13.955Z,21.03
2018-07-07T21:46:42.900Z,21.07
2018-07-07T21:49:11.920Z,21.09
2018-07-07T21:51:40.909Z,21.08
2018-07-07T21:54:09.855Z,20.84
2018-07-07T21:56:38.749Z,20.95
2018-07-07T21:59:12.941Z,21.15
2018-07-07T22:01:55.069Z,21.15
2018-07-07T22:04:30.621Z,21.14
2018-07-07T22:07:05.570Z,21.11
2018-07-07T22:09:35.336Z,21.08
2018-07-07T22:12:04.327Z,21.07
2018-07-07T22:14:33.408Z,20.90
2018-07-07T22:17:02.379Z,20.94
2018-07-07T22:19:31.350Z,20.95
2018-07-07T22:22:05.312Z,20.98
2018-07-07T22:24:34.370Z,20.69
2018-07-07T22:27:18.031Z,20.70
2018-07-07T22:29:46.950Z,20.85
2018-07-07T22:32:20.280Z,20.81
2018-07-07T22:34:49.367Z,20.79
2018-07-07T22:37:18.308Z,20.90
2018-07-07T22:39:47.475Z,20.76
2018-07-07T22:42:18.484Z,20.49
2018-07-07T22:44:48.529Z,20.63
2018-07-07T22:47:17.452Z,20.72
2018-07-07T22:49:46.384Z,20.69
2018-07-07T22:52:15.320Z,20.61
2018-07-07T22:54:44.275Z,20.68
2018-07-07T22:57:13.210Z,20.68
2018-07-07T22:59:42.120Z,20.57
2018-07-07T23:02:11.049Z,20.45
2018-07-07T23:04:39.971Z,20.45
2018-07-07T23:07:14.453Z,20.50
2018-07-07T23:09:43.426Z,20.37
2018-07-07T23:12:12.358Z,20.45
2018-07-07T23:14:41.301Z,20.54
2018-07-07T23:17:10.301Z,20.68
2018-07-07T23:19:39.201Z,20.70
2018-07-07T23:22:08.141Z,20.65
2018-07-07T23:24:37.051Z,20.63
2018-07-07T23:27:06.001Z,20.37
2018-07-07T23:29:34.915Z,20.29
2018-07-07T23:32:03.922Z,20.22
2018-07-07T23:34:32.813Z,20.10
2018-07-07T23:37:01.805Z,20.15
2018-07-07T23:39:36.454Z,20.25
2018-07-07T23:42:10.982Z,20.09
2018-07-07T23:44:39.915Z,20.05
2018-07-07T23:47:08.832Z,20.12
2018-07-07T23:49:37.765Z,19.97
2018-07-07T23:52:06.732Z,20.02
2018-07-07T23:54:35.777Z,19.98
2018-07-07T23:57:04.721Z,19.87
2018-07-07T23:59:33.661Z,20.00
